createdAt,value
2023-09-25T00:01:48.318Z,101373.84
2023-09-25T00:04:17.235Z,101380.41
2023-09-25T00:06:47.669Z,101378.25
2023-09-25T00:09:16.216Z,101383.25
2023-09-25T00:11:45.766Z,101387.06
2023-09-25T00:14:15.057Z,101395.38
2023-09-25T00:16:43.614Z,101398.69
2023-09-25T00:19:12.781Z,101389.34
2023-09-25T00:21:41.971Z,101402.03
2023-09-25T00:24:12.222Z,101410.19
2023-09-25T00:26:40.746Z,101408.53
2023-09-25T00:29:09.484Z,101414.03
2023-09-25T00:31:38.585Z,101416.28
2023-09-25T00:34:07.253Z,101411.84
2023-09-25T00:36:36.032Z,101421.25
2023-09-25T00:39:07.488Z,101412.19
2023-09-25T00:41:38.134Z,101423.41
2023-09-25T00:44:06.817Z,101431.13
2023-09-25T00:46:35.320Z,101436.91
2023-09-25T00:49:04.028Z,101439.97
2023-09-25T00:51:32.604Z,101441.88
2023-09-25T00:54:00.999Z,101447.97
2023-09-25T00:56:29.582Z,101443.84
2023-09-25T00:59:00.318Z,101440.06
2023-09-25T01:01:29.329Z,101428.00
2023-09-25T01:03:58.403Z,101444.13
2023-09-25T01:06:26.885Z,101446.16
2023-09-25T01:08:55.527Z,101447.81
2023-09-25T01:11:24.103Z,101440.06
2023-09-25T01:13:53.914Z,101454.28
2023-09-25T01:16:25.815Z,101458.59
2023-09-25T01:18:54.220Z,101461.88
2023-09-25T01:21:24.144Z,101452.22
2023-09-25T01:23:54.295Z,101447.03
2023-09-25T01:26:23.110Z,101452.97
2023-09-25T01:28:51.950Z,101450.78
2023-09-25T01:31:20.549Z,101451.63
2023-09-25T01:33:49.499Z,101464.28
2023-09-25T01:36:18.428Z,101461.16
2023-09-25T01:38:48.004Z,101462.59
2023-09-25T01:41:19.076Z,101460.63
2023-09-25T01:43:47.478Z,101456.22
2023-09-25T01:46:18.466Z,101462.72
2023-09-25T01:48:48.086Z,101449.41
2023-09-25T01:51:17.031Z,101462.94
2023-09-25T01:53:47.459Z,101459.28
2023-09-25T01:56:17.751Z,101458.22
2023-09-25T01:58:46.336Z,101464.63
2023-09-25T02:01:14.722Z,101462.53
2023-09-25T02:03:44.607Z,101469.44
2023-09-25T02:06:14.410Z,101469.13
2023-09-25T02:08:43.543Z,101465.78
2023-09-25T02:11:12.091Z,101473.53
2023-09-25T02:13:43.043Z,101469.28
2023-09-25T02:16:11.931Z,101474.84
2023-09-25T02:18:40.470Z,101464.47
2023-09-25T02:21:09.237Z,101470.13
2023-09-25T02:23:40.373Z,101473.44
2023-09-25T02:26:09.141Z,101471.78
2023-09-25T02:28:37.514Z,101471.06
2023-09-25T02:31:08.748Z,101465.78
2023-09-25T02:33:37.697Z,101462.47
2023-09-25T02:36:07.295Z,101469.28
2023-09-25T02:38:36.636Z,101468.72
2023-09-25T02:41:05.774Z,101466.53
2023-09-25T02:43:34.339Z,101459.63
2023-09-25T02:46:03.330Z,101467.63
2023-09-25T02:48:34.710Z,101471.19
2023-09-25T02:51:03.478Z,101467.31
2023-09-25T02:53:33.296Z,101463.97
2023-09-25T02:56:01.985Z,101482.19
2023-09-25T02:58:31.402Z,101478.28
2023-09-25T03:01:01.349Z,101480.84
2023-09-25T03:03:31.526Z,101482.69
2023-09-25T03:06:01.503Z,101480.94
2023-09-25T03:08:30.016Z,101484.75
2023-09-25T03:10:58.800Z,101481.44
2023-09-25T03:13:27.262Z,101477.88
2023-09-25T03:15:56.107Z,101488.75
2023-09-25T03:18:24.737Z,101486.94
2023-09-25T03:20:53.310Z,101485.75
2023-09-25T03:23:23.781Z,101496.22
2023-09-25T03:25:52.433Z,101495.91
2023-09-25T03:28:21.653Z,101503.63
2023-09-25T03:30:50.970Z,101501.47
2023-09-25T03:33:19.879Z,101495.72
2023-09-25T03:35:48.607Z,101498.22
2023-09-25T03:38:17.168Z,101513.88
2023-09-25T03:40:47.394Z,101510.03
2023-09-25T03:43:15.955Z,101516.44
2023-09-25T03:45:44.721Z,101502.41
2023-09-25T03:48:13.308Z,101514.06
2023-09-25T03:50:42.046Z,101517.78
2023-09-25T03:53:12.549Z,101511.22
2023-09-25T03:55:41.396Z,101515.19
2023-09-25T03:58:11.608Z,101510.03
2023-09-25T04:00:40.941Z,101512.28
2023-09-25T04:03:09.785Z,101504.56
2023-09-25T04:05:38.440Z,101507.56
2023-09-25T04:08:07.418Z,101509.38
2023-09-25T04:10:35.852Z,101517.69
2023-09-25T04:13:04.317Z,101518.78
2023-09-25T04:15:34.083Z,101525.34
2023-09-25T04:18:03.007Z,101518.19
2023-09-25T04:20:33.495Z,101520.50
2023-09-25T04:23:01.858Z,101528.41
2023-09-25T04:25:30.511Z,101525.66
2023-09-25T04:27:59.121Z,101530.06
2023-09-25T04:30:29.344Z,101524.97
2023-09-25T04:33:00.294Z,101529.97
2023-09-25T04:35:29.877Z,101535.94
2023-09-25T04:37:58.473Z,101535.34
2023-09-25T04:40:32.317Z,101537.75
2023-09-25T04:43:01.911Z,101544.56
2023-09-25T04:45:31.243Z,101545.41
2023-09-25T04:48:01.978Z,101550.16
2023-09-25T04:50:31.338Z,101546.47
2023-09-25T04:53:00.001Z,101546.72
2023-09-25T04:55:28.353Z,101549.38
2023-09-25T04:57:57.081Z,101552.03
2023-09-25T05:00:28.078Z,101555.00
2023-09-25T05:02:57.967Z,101561.75
2023-09-25T05:05:28.575Z,101565.97
2023-09-25T05:07:59.055Z,101573.00
2023-09-25T05:10:28.923Z,101570.16
2023-09-25T05:12:58.319Z,101577.81
2023-09-25T05:15:27.417Z,101577.69
2023-09-25T05:17:56.437Z,101577.59
2023-09-25T05:20:26.960Z,101585.91
2023-09-25T05:22:58.906Z,101594.28
2023-09-25T05:25:28.374Z,101594.16
2023-09-25T05:27:58.384Z,101603.94
2023-09-25T05:30:26.949Z,101599.41
2023-09-25T05:32:55.847Z,101597.63
2023-09-25T05:35:24.888Z,101607.84
2023-09-25T05:37:54.498Z,101609.91
2023-09-25T05:40:25.131Z,101612.72
2023-09-25T05:42:53.798Z,101612.38
2023-09-25T05:45:23.045Z,101615.81
2023-09-25T05:47:51.948Z,101614.25
2023-09-25T05:50:20.816Z,101619.63
2023-09-25T05:52:49.576Z,101621.09
2023-09-25T05:55:18.267Z,101621.44
2023-09-25T05:57:48.264Z,101625.13
2023-09-25T06:00:19.661Z,101623.91
2023-09-25T06:02:50.114Z,101621.03
2023-09-25T06:05:19.409Z,101625.31
2023-09-25T06:07:48.166Z,101632.31
2023-09-25T06:10:19.455Z,101632.16
2023-09-25T06:12:51.930Z,101639.19
2023-09-25T06:15:24.944Z,101644.03
2023-09-25T06:17:54.606Z,101644.03
2023-09-25T06:20:26.175Z,101651.63
2023-09-25T06:22:55.100Z,101653.78
2023-09-25T06:25:23.996Z,101654.84
2023-09-25T06:27:54.539Z,101660.91
2023-09-25T06:30:23.451Z,101668.66
2023-09-25T06:32:52.430Z,101665.47
2023-09-25T06:35:21.192Z,101666.69
2023-09-25T06:37:50.050Z,101665.38
2023-09-25T06:40:20.546Z,101672.66
2023-09-25T06:42:49.673Z,101674.72
2023-09-25T06:45:22.857Z,101678.19
2023-09-25T06:47:52.010Z,101673.59
2023-09-25T06:50:20.976Z,101683.56
2023-09-25T06:52:49.493Z,101687.41
2023-09-25T06:55:18.163Z,101681.69
2023-09-25T06:57:47.352Z,101680.91
2023-09-25T07:00:16.498Z,101685.16
2023-09-25T07:02:46.909Z,101695.22
2023-09-25T07:05:16.488Z,101695.81
2023-09-25T07:07:45.566Z,101702.13
2023-09-25T07:10:14.245Z,101707.47
2023-09-25T07:12:43.976Z,101714.50
2023-09-25T07:15:13.596Z,101712.16
2023-09-25T07:17:42.641Z,101709.63
2023-09-25T07:20:13.588Z,101708.31
2023-09-25T07:22:43.556Z,101708.91
2023-09-25T07:25:11.921Z,101723.56
2023-09-25T07:27:43.100Z,101724.34
2023-09-25T07:30:12.772Z,101733.38
2023-09-25T07:32:43.722Z,101732.91
2023-09-25T07:35:16.619Z,101728.25
2023-09-25T07:37:45.789Z,101734.34
2023-09-25T07:40:15.878Z,101744.34
2023-09-25T07:42:45.109Z,101756.38
2023-09-25T07:45:16.322Z,101743.47
2023-09-25T07:47:45.709Z,101749.09
2023-09-25T07:50:15.881Z,101754.00
2023-09-25T07:52:44.497Z,101758.25
2023-09-25T07:55:13.560Z,101753.03
2023-09-25T07:57:44.075Z,101754.69
2023-09-25T08:00:18.971Z,101746.19
2023-09-25T08:02:49.191Z,101762.28
2023-09-25T08:05:19.842Z,101762.94
2023-09-25T08:07:49.721Z,101762.88
2023-09-25T08:10:19.547Z,101771.22
2023-09-25T08:12:48.331Z,101776.38
2023-09-25T08:15:17.260Z,101772.00
2023-09-25T08:17:47.181Z,101773.13
2023-09-25T08:20:22.153Z,101778.41
2023-09-25T08:22:59.857Z,101781.72
2023-09-25T08:25:28.748Z,101786.63
2023-09-25T08:27:57.644Z,101781.22
2023-09-25T08:30:26.310Z,101789.22
2023-09-25T08:32:55.791Z,101786.66
2023-09-25T08:35:25.362Z,101782.22
2023-09-25T08:37:55.305Z,101781.66
2023-09-25T08:40:24.307Z,101784.91
2023-09-25T08:43:05.106Z,101785.88
2023-09-25T08:45:44.653Z,101783.84
2023-09-25T08:48:13.761Z,101787.06
2023-09-25T08:50:43.114Z,101791.22
2023-09-25T08:53:13.248Z,101790.47
2023-09-25T08:55:42.563Z,101792.63
2023-09-25T08:58:11.844Z,101796.22
2023-09-25T09:00:42.150Z,101799.94
2023-09-25T09:03:11.043Z,101797.03
2023-09-25T09:05:39.946Z,101794.63
2023-09-25T09:08:09.618Z,101799.50
2023-09-25T09:10:41.547Z,101794.41
2023-09-25T09:13:12.158Z,101805.56
2023-09-25T09:15:42.744Z,101805.63
2023-09-25T09:18:26.242Z,101812.91
2023-09-25T09:20:56.747Z,101810.09
2023-09-25T09:23:42.185Z,101816.06
2023-09-25T09:26:15.357Z,101819.97
2023-09-25T09:28:44.943Z,101826.91
2023-09-25T09:31:13.509Z,101823.97
2023-09-25T09:33:43.721Z,101832.91
2023-09-25T09:36:14.204Z,101834.53
2023-09-25T09:38:47.588Z,101831.88
2023-09-25T09:41:19.520Z,101832.25
2023-09-25T09:43:49.744Z,101832.50
2023-09-25T09:46:18.937Z,101833.81
2023-09-25T09:48:49.810Z,101823.16
2023-09-25T09:51:19.072Z,101835.91
2023-09-25T09:53:48.312Z,101835.19
2023-09-25T09:56:22.127Z,101832.53
2023-09-25T09:58:51.799Z,101833.91
2023-09-25T10:01:21.521Z,101836.53
2023-09-25T10:03:51.114Z,101835.47
2023-09-25T10:06:20.156Z,101829.97
2023-09-25T10:09:02.094Z,101830.06
2023-09-25T10:11:32.148Z,101842.97
2023-09-25T10:14:05.493Z,101846.06
2023-09-25T10:17:09.808Z,101840.31
2023-09-25T10:19:50.275Z,101824.63
2023-09-25T10:22:21.833Z,101836.25
2023-09-25T10:25:04.040Z,101842.28
2023-09-25T10:27:34.396Z,101840.81
2023-09-25T10:30:12.952Z,101834.00
2023-09-25T10:32:44.071Z,101832.84
2023-09-25T10:35:38.393Z,101843.16
2023-09-25T10:41:01.629Z,101846.72
2023-09-25T10:43:32.897Z,101839.03
2023-09-25T10:46:01.916Z,101838.78
2023-09-25T10:48:33.366Z,101835.19
2023-09-25T10:51:02.742Z,101835.97
2023-09-25T10:53:34.189Z,101839.03
2023-09-25T10:56:02.501Z,101846.66
2023-09-25T10:58:32.873Z,101842.31
2023-09-25T11:01:06.398Z,101836.53
2023-09-25T11:03:38.236Z,101844.59
2023-09-25T11:06:07.495Z,101847.41
2023-09-25T11:08:36.270Z,101840.75
2023-09-25T11:11:04.862Z,101849.63
2023-09-25T11:13:35.012Z,101849.88
2023-09-25T11:16:04.802Z,101842.72
2023-09-25T11:18:34.142Z,101851.84
2023-09-25T11:21:02.882Z,101857.09
2023-09-25T11:23:34.961Z,101849.06
2023-09-25T11:26:05.360Z,101846.84
2023-09-25T11:28:35.062Z,101857.91
2023-09-25T11:31:04.644Z,101857.38
2023-09-25T11:33:34.516Z,101847.63
2023-09-25T11:36:12.001Z,101853.41
2023-09-25T11:38:54.737Z,101858.44
2023-09-25T11:41:31.901Z,101851.28
2023-09-25T11:44:11.007Z,101844.09
2023-09-25T11:46:40.318Z,101849.59
2023-09-25T11:49:09.364Z,101844.53
2023-09-25T11:51:38.493Z,101840.69
2023-09-25T11:54:07.227Z,101850.34
2023-09-25T11:56:35.889Z,101841.13
2023-09-25T11:59:05.206Z,101844.88
2023-09-25T12:01:37.970Z,101847.59
2023-09-25T12:04:06.661Z,101839.84
2023-09-25T12:06:36.224Z,101844.59
2023-09-25T12:09:12.827Z,101841.22
2023-09-25T12:11:43.519Z,101846.78
2023-09-25T12:14:12.801Z,101852.06
2023-09-25T12:16:43.531Z,101855.28
2023-09-25T12:19:13.254Z,101849.31
2023-09-25T12:21:42.385Z,101843.69
2023-09-25T12:24:11.413Z,101850.59
2023-09-25T12:26:40.767Z,101853.13
2023-09-25T12:29:11.613Z,101853.56
2023-09-25T12:31:40.180Z,101843.19
2023-09-25T12:34:10.293Z,101853.38
2023-09-25T12:36:39.972Z,101855.47
2023-09-25T12:39:10.577Z,101844.34
2023-09-25T12:41:40.755Z,101845.31
2023-09-25T12:44:09.366Z,101843.34
2023-09-25T12:46:38.351Z,101845.72
2023-09-25T12:49:06.996Z,101838.25
2023-09-25T12:51:37.674Z,101842.25
2023-09-25T12:54:06.907Z,101856.53
2023-09-25T12:56:36.000Z,101854.34
2023-09-25T12:59:04.444Z,101865.53
2023-09-25T13:01:32.758Z,101863.09
2023-09-25T13:04:01.315Z,101868.13
2023-09-25T13:06:30.399Z,101858.09
2023-09-25T13:09:02.284Z,101865.22
2023-09-25T13:11:35.318Z,101859.97
2023-09-25T13:14:05.499Z,101853.88
2023-09-25T13:16:33.982Z,101857.72
2023-09-25T13:19:03.368Z,101851.06
2023-09-25T13:21:31.832Z,101849.81
2023-09-25T13:24:01.504Z,101859.84
2023-09-25T13:26:30.092Z,101854.03
2023-09-25T13:28:59.084Z,101857.72
2023-09-25T13:31:27.759Z,101853.28
2023-09-25T13:33:56.499Z,101845.19
2023-09-25T13:36:26.669Z,101855.97
2023-09-25T13:38:55.672Z,101846.75
2023-09-25T13:41:25.733Z,101844.84
2023-09-25T13:43:54.152Z,101848.97
2023-09-25T13:46:22.975Z,101848.16
2023-09-25T13:48:51.758Z,101855.81
2023-09-25T13:51:20.426Z,101843.34
2023-09-25T13:53:49.729Z,101843.69
2023-09-25T13:56:19.530Z,101843.69
2023-09-25T13:58:49.189Z,101845.25
2023-09-25T14:01:17.782Z,101844.75
2023-09-25T14:03:46.204Z,101845.44
2023-09-25T14:06:14.516Z,101848.16
2023-09-25T14:08:43.266Z,101854.84
2023-09-25T14:11:11.858Z,101854.53
2023-09-25T14:13:40.643Z,101854.38
2023-09-25T14:16:12.219Z,101854.47
2023-09-25T14:18:41.057Z,101852.09
2023-09-25T14:21:09.452Z,101842.25
2023-09-25T14:23:37.782Z,101851.69
2023-09-25T14:26:06.342Z,101843.97
2023-09-25T14:28:34.971Z,101850.19
2023-09-25T14:31:05.974Z,101843.44
2023-09-25T14:33:40.586Z,101846.63
2023-09-25T14:36:10.620Z,101840.16
2023-09-25T14:38:39.204Z,101846.03
2023-09-25T14:41:07.984Z,101847.22
2023-09-25T14:43:36.197Z,101850.88
2023-09-25T14:46:04.777Z,101852.00
2023-09-25T14:48:34.115Z,101852.50
2023-09-25T14:51:04.427Z,101847.25
2023-09-25T14:53:33.267Z,101840.88
2023-09-25T14:56:01.451Z,101846.22
2023-09-25T14:58:29.709Z,101852.34
2023-09-25T15:00:59.149Z,101854.59
2023-09-25T15:03:28.011Z,101846.88
2023-09-25T15:05:56.956Z,101862.91
2023-09-25T15:08:26.939Z,101858.22
2023-09-25T15:10:56.059Z,101857.34
2023-09-25T15:13:24.863Z,101856.81
2023-09-25T15:15:53.287Z,101852.38
2023-09-25T15:18:21.697Z,101849.59
2023-09-25T15:20:50.007Z,101845.75
2023-09-25T15:23:18.379Z,101839.09
2023-09-25T15:25:48.221Z,101847.41
2023-09-25T15:28:16.710Z,101834.97
2023-09-25T15:30:44.978Z,101849.06
2023-09-25T15:33:13.289Z,101842.44
2023-09-25T15:35:41.721Z,101842.13
2023-09-25T15:38:09.955Z,101839.34
2023-09-25T15:40:40.146Z,101843.19
2023-09-25T15:43:10.003Z,101850.13
2023-09-25T15:45:38.398Z,101850.13
2023-09-25T15:48:07.204Z,101838.16
2023-09-25T15:50:35.508Z,101837.66
2023-09-25T15:53:03.755Z,101843.19
2023-09-25T15:55:31.954Z,101837.34
2023-09-25T15:58:00.351Z,101835.97
2023-09-25T16:00:30.794Z,101840.09
2023-09-25T16:03:08.121Z,101852.25
2023-09-25T16:05:36.974Z,101838.41
2023-09-25T16:08:06.050Z,101847.53
2023-09-25T16:10:34.370Z,101848.88
2023-09-25T16:13:03.220Z,101842.50
2023-09-25T16:15:37.497Z,101851.59
2023-09-25T16:18:06.966Z,101847.72
2023-09-25T16:20:36.906Z,101853.19
2023-09-25T16:23:05.952Z,101849.28
2023-09-25T16:25:34.425Z,101849.31
2023-09-25T16:28:02.954Z,101844.28
2023-09-25T16:30:31.757Z,101846.78
2023-09-25T16:33:01.721Z,101852.84
2023-09-25T16:35:30.748Z,101865.81
2023-09-25T16:38:00.210Z,101861.28
2023-09-25T16:40:28.954Z,101857.72
2023-09-25T16:42:57.325Z,101864.31
2023-09-25T16:45:26.132Z,101866.97
2023-09-25T16:47:54.764Z,101862.84
2023-09-25T16:50:24.659Z,101863.41
2023-09-25T16:52:53.089Z,101867.25
2023-09-25T16:55:21.457Z,101870.00
2023-09-25T16:57:50.087Z,101869.97
2023-09-25T17:00:21.457Z,101870.47
2023-09-25T17:02:50.288Z,101880.34
2023-09-25T17:05:19.676Z,101872.13
2023-09-25T17:07:52.045Z,101877.25
2023-09-25T17:10:20.303Z,101880.09
2023-09-25T17:12:48.783Z,101869.28
2023-09-25T17:15:18.623Z,101865.38
2023-09-25T17:17:51.146Z,101874.69
2023-09-25T17:20:20.604Z,101883.50
2023-09-25T17:23:02.079Z,101885.91
2023-09-25T17:25:33.527Z,101882.00
2023-09-25T17:28:07.427Z,101880.75
2023-09-25T17:30:37.897Z,101874.34
2023-09-25T17:33:08.426Z,101886.31
2023-09-25T17:35:38.490Z,101886.59
2023-09-25T17:38:09.174Z,101892.22
2023-09-25T17:40:38.171Z,101905.69
2023-09-25T17:43:09.590Z,101901.00
2023-09-25T17:45:38.858Z,101902.28
2023-09-25T17:48:08.495Z,101894.31
2023-09-25T17:50:37.548Z,101891.03
2023-09-25T17:53:06.799Z,101892.97
2023-09-25T17:55:36.816Z,101904.00
2023-09-25T17:58:16.077Z,101905.66
2023-09-25T18:00:52.499Z,101905.41
2023-09-25T18:03:22.068Z,101902.59
2023-09-25T18:05:53.724Z,101904.09
2023-09-25T18:08:22.962Z,101916.59
2023-09-25T18:10:54.407Z,101920.03
2023-09-25T18:13:23.216Z,101921.66
2023-09-25T18:15:52.981Z,101924.84
2023-09-25T18:18:22.004Z,101921.06
2023-09-25T18:20:50.867Z,101921.81
2023-09-25T18:23:20.673Z,101913.66
2023-09-25T18:25:56.102Z,101910.81
2023-09-25T18:28:25.468Z,101932.25
2023-09-25T18:30:55.311Z,101942.03
2023-09-25T18:33:24.763Z,101950.06
2023-09-25T18:35:53.633Z,101936.53
2023-09-25T18:38:22.933Z,101940.50
2023-09-25T18:40:54.042Z,101940.88
2023-09-25T18:43:23.094Z,101949.88
2023-09-25T18:45:54.576Z,101959.38
2023-09-25T18:48:23.514Z,101947.53
2023-09-25T18:50:52.039Z,101942.09
2023-09-25T18:53:26.182Z,101941.75
2023-09-25T18:55:56.764Z,101952.53
2023-09-25T18:58:26.233Z,101966.16
2023-09-25T19:00:57.340Z,101962.97
2023-09-25T19:03:27.940Z,101956.97
2023-09-25T19:05:57.600Z,101956.03
2023-09-25T19:08:29.478Z,101962.75
2023-09-25T19:10:59.613Z,101961.34
2023-09-25T19:13:42.254Z,101958.09
2023-09-25T19:16:12.088Z,101956.06
2023-09-25T19:18:42.054Z,101942.47
2023-09-25T19:21:12.623Z,101954.97
2023-09-25T19:23:41.453Z,101950.41
2023-09-25T19:26:11.601Z,101947.53
2023-09-25T19:28:40.234Z,101950.19
2023-09-25T19:31:16.374Z,101954.38
2023-09-25T19:33:58.329Z,101959.50
2023-09-25T19:36:27.133Z,101956.31
2023-09-25T19:38:55.937Z,101959.31
2023-09-25T19:41:25.817Z,101959.09
2023-09-25T19:43:54.194Z,101949.75
2023-09-25T19:46:23.453Z,101947.88
2023-09-25T19:48:52.181Z,101959.25
2023-09-25T19:51:20.816Z,101953.13
2023-09-25T19:53:49.654Z,101950.28
2023-09-25T19:56:19.362Z,101955.19
2023-09-25T19:58:50.478Z,101952.31
2023-09-25T20:01:19.889Z,101955.81
2023-09-25T20:03:48.699Z,101947.31
2023-09-25T20:06:18.797Z,101954.38
2023-09-25T20:08:47.617Z,101964.13
2023-09-25T20:11:16.479Z,101963.53
2023-09-25T20:13:45.777Z,101965.69
2023-09-25T20:16:16.166Z,101960.66
2023-09-25T20:18:45.098Z,101966.06
2023-09-25T20:21:14.169Z,101975.69
2023-09-25T20:23:43.576Z,101973.56
2023-09-25T20:26:12.272Z,101975.72
2023-09-25T20:28:42.080Z,101968.31
2023-09-25T20:31:11.492Z,101967.34
2023-09-25T20:33:41.818Z,101957.69
2023-09-25T20:36:12.665Z,101965.09
2023-09-25T20:38:42.775Z,101952.31
2023-09-25T20:41:11.759Z,101963.53
2023-09-25T20:43:40.869Z,101956.16
2023-09-25T20:46:09.530Z,101964.25
2023-09-25T20:51:07.323Z,101961.25
2023-09-25T20:53:36.088Z,101969.63
2023-09-25T20:56:06.414Z,101966.50
2023-09-25T20:58:35.123Z,101968.66
2023-09-25T21:01:03.554Z,101973.81
2023-09-25T21:03:51.796Z,101967.81
2023-09-25T21:06:47.266Z,101961.13
2023-09-25T21:09:16.065Z,101953.13
2023-09-25T21:11:44.629Z,101958.50
2023-09-25T21:14:13.941Z,101968.88
2023-09-25T21:16:43.276Z,101962.56
2023-09-25T21:19:15.445Z,101966.34
2023-09-25T21:21:49.434Z,101966.84
2023-09-25T21:24:18.711Z,101964.69
2023-09-25T21:26:48.221Z,101964.09
2023-09-25T21:29:20.770Z,101962.28
2023-09-25T21:31:49.883Z,101961.47
2023-09-25T21:34:18.852Z,101954.28
2023-09-25T21:36:49.393Z,101952.63
2023-09-25T21:39:18.293Z,101956.19
2023-09-25T21:41:46.877Z,101955.72
2023-09-25T21:44:15.873Z,101956.31
2023-09-25T21:46:47.106Z,101959.28
2023-09-25T21:49:22.537Z,101953.97
2023-09-25T21:51:52.519Z,101960.09
2023-09-25T21:54:21.166Z,101955.03
2023-09-25T21:56:50.048Z,101947.03
2023-09-25T21:59:20.642Z,101945.38
2023-09-25T22:01:50.592Z,101951.91
2023-09-25T22:04:19.522Z,101939.75
2023-09-25T22:06:48.582Z,101940.59
2023-09-25T22:09:20.022Z,101944.16
2023-09-25T22:11:49.543Z,101939.38
2023-09-25T22:14:18.002Z,101938.78
2023-09-25T22:16:46.585Z,101934.59
2023-09-25T22:19:15.641Z,101928.28
2023-09-25T22:21:45.785Z,101928.28
2023-09-25T22:24:16.341Z,101935.91
2023-09-25T22:26:46.525Z,101927.31
2023-09-25T22:29:15.767Z,101914.44
2023-09-25T22:31:45.337Z,101917.03
2023-09-25T22:34:14.649Z,101912.03
2023-09-25T22:36:43.518Z,101920.47
2023-09-25T22:39:13.882Z,101915.81
2023-09-25T22:41:42.929Z,101911.88
2023-09-25T22:44:13.477Z,101916.75
2023-09-25T22:46:42.846Z,101922.22
2023-09-25T22:49:11.838Z,101915.09
2023-09-25T22:51:40.579Z,101914.00
2023-09-25T22:54:09.278Z,101900.63
2023-09-25T22:56:38.171Z,101913.72
2023-09-25T22:59:07.097Z,101898.97
2023-09-25T23:01:38.657Z,101901.31
2023-09-25T23:04:08.256Z,101909.41
2023-09-25T23:06:36.660Z,101907.25
2023-09-25T23:09:06.220Z,101904.16
2023-09-25T23:11:34.861Z,101903.53
2023-09-25T23:14:04.393Z,101900.22
2023-09-25T23:16:34.121Z,101898.06
2023-09-25T23:19:04.314Z,101889.25
2023-09-25T23:21:34.344Z,101893.06
2023-09-25T23:24:02.989Z,101893.50
2023-09-25T23:26:32.601Z,101887.69
2023-09-25T23:29:01.965Z,101894.81
2023-09-25T23:31:30.566Z,101890.63
2023-09-25T23:33:59.716Z,101879.22
2023-09-25T23:36:30.108Z,101878.84
2023-09-25T23:38:59.394Z,101880.13
2023-09-25T23:41:28.095Z,101871.78
2023-09-25T23:43:56.655Z,101867.38
2023-09-25T23:46:25.209Z,101873.31
2023-09-25T23:48:55.703Z,101874.00
2023-09-25T23:51:24.887Z,101868.97
2023-09-25T23:53:54.894Z,101860.97
2023-09-25T23:56:23.582Z,101865.84
2023-09-25T23:58:52.185Z,101874.53
